Time,TemperatureF,DewpointF,PressureIn,WindDirection,WindDirectionDegrees,WindSpeedMPH,WindSpeedGustMPH,Humidity,HourlyPrecipIn,Conditions,Clouds,dailyrainin,SoftwareType,DateUTC
2013-08-24 00:03:00,50.5,39.6,29.77,SE,136,2.0,5.0,66,0.00,,,0.00,WeatherTracker,2013-08-24 07:03:00,
2013-08-24 00:08:00,50.0,39.1,29.77,SE,135,2.0,5.0,66,0.00,,,0.00,WeatherTracker,2013-08-24 07:08:00,
2013-08-24 00:13:00,50.1,39.6,29.77,SE,132,2.0,3.0,67,0.00,,,0.00,WeatherTracker,2013-08-24 07:13:00,
2013-08-24 00:18:00,49.9,39.4,29.77,SE,131,0.0,3.0,67,0.00,,,0.00,WeatherTracker,2013-08-24 07:18:00,
2013-08-24 00:23:00,50.0,39.5,29.77,SE,139,4.0,4.0,67,0.00,,,0.00,WeatherTracker,2013-08-24 07:23:00,
2013-08-24 00:29:00,49.9,39.0,29.77,SE,127,0.0,0.0,66,0.00,,,0.00,WeatherTracker,2013-08-24 07:29:00,
2013-08-24 00:34:00,49.6,39.1,29.77,SE,127,0.0,3.0,67,0.00,,,0.00,WeatherTracker,2013-08-24 07:34:00,
2013-08-24 00:39:00,48.8,39.1,29.78,SE,133,0.0,3.0,69,0.00,,,0.00,WeatherTracker,2013-08-24 07:39:00,
2013-08-24 00:44:00,48.6,38.9,29.78,SE,133,0.0,4.0,69,0.00,,,0.00,WeatherTracker,2013-08-24 07:44:00,
2013-08-24 00:49:00,48.4,39.8,29.78,SE,133,0.0,4.0,72,0.00,,,0.00,WeatherTracker,2013-08-24 07:49:00,
2013-08-24 00:54:00,47.8,39.2,29.78,SE,135,0.0,0.0,72,0.00,,,0.00,WeatherTracker,2013-08-24 07:54:00,
2013-08-24 00:59:00,47.5,39.6,29.78,SE,135,0.0,3.0,74,0.00,,,0.00,WeatherTracker,2013-08-24 07:59:00,
2013-08-24 01:04:00,47.8,39.9,29.78,SE,135,2.0,3.0,74,0.00,,,0.00,WeatherTracker,2013-08-24 08:04:00,
2013-08-24 01:09:00,47.7,39.1,29.78,SE,135,0.0,3.0,72,0.00,,,0.00,WeatherTracker,2013-08-24 08:09:00,
2013-08-24 01:14:00,47.4,39.5,29.78,SE,135,0.0,3.0,74,0.00,,,0.00,WeatherTracker,2013-08-24 08:14:00,
2013-08-24 01:19:00,47.6,38.7,29.78,SE,135,0.0,0.0,71,0.00,,,0.00,WeatherTracker,2013-08-24 08:19:00,
2013-08-24 01:24:00,47.8,39.2,29.78,SE,135,0.0,0.0,72,0.00,,,0.00,WeatherTracker,2013-08-24 08:24:00,
2013-08-24 01:29:00,47.7,39.1,29.78,SE,135,0.0,3.0,72,0.00,,,0.00,WeatherTracker,2013-08-24 08:29:00,
2013-08-24 01:34:00,47.2,39.0,29.78,ESE,120,0.0,3.0,73,0.00,,,0.00,WeatherTracker,2013-08-24 08:34:00,
2013-08-24 01:39:00,46.6,38.1,29.78,ESE,119,0.0,5.0,72,0.00,,,0.00,WeatherTracker,2013-08-24 08:39:00,
2013-08-24 01:45:00,46.1,37.9,29.78,ESE,120,0.0,0.0,73,0.00,,,0.00,WeatherTracker,2013-08-24 08:45:00,
2013-08-24 01:50:00,45.9,38.1,29.78,ESE,119,0.0,0.0,74,0.00,,,0.00,WeatherTracker,2013-08-24 08:50:00,
2013-08-24 01:55:00,45.9,38.1,29.78,ESE,119,0.0,0.0,74,0.00,,,0.00,WeatherTracker,2013-08-24 08:55:00,
2013-08-24 02:00:00,45.4,37.9,29.78,ESE,119,0.0,3.0,75,0.00,,,0.00,WeatherTracker,2013-08-24 09:00:00,
2013-08-24 02:05:00,45.1,38.3,29.78,ESE,120,0.0,3.0,77,0.00,,,0.00,WeatherTracker,2013-08-24 09:05:00,
2013-08-24 02:10:00,44.8,38.0,29.78,ESE,119,3.0,3.0,77,0.00,,,0.00,WeatherTracker,2013-08-24 09:10:00,
2013-08-24 02:15:00,44.6,37.5,29.78,ESE,119,0.0,4.0,76,0.00,,,0.00,WeatherTracker,2013-08-24 09:15:00,
2013-08-24 02:20:00,43.9,37.2,29.79,SE,125,1.0,4.0,77,0.00,,,0.00,WeatherTracker,2013-08-24 09:20:00,
2013-08-24 02:25:00,43.8,37.1,29.79,SE,125,0.0,4.0,77,0.00,,,0.00,WeatherTracker,2013-08-24 09:25:00,
2013-08-24 02:30:00,43.7,37.0,29.79,SE,125,0.0,2.0,77,0.00,,,0.00,WeatherTracker,2013-08-24 09:30:00,
2013-08-24 02:35:00,43.3,36.9,29.79,SE,142,0.0,5.0,78,0.00,,,0.00,WeatherTracker,2013-08-24 09:35:00,
2013-08-24 02:40:00,43.7,37.6,29.79,SE,142,0.0,5.0,79,0.00,,,0.00,WeatherTracker,2013-08-24 09:40:00,
2013-08-24 02:45:00,44.8,38.4,29.79,SE,141,0.0,4.0,78,0.00,,,0.00,WeatherTracker,2013-08-24 09:45:00,
2013-08-24 02:50:00,45.3,37.5,29.79,SE,142,0.0,4.0,74,0.00,,,0.00,WeatherTracker,2013-08-24 09:50:00,
2013-08-24 02:55:00,45.6,37.5,29.79,SE,141,0.0,2.0,73,0.00,,,0.00,WeatherTracker,2013-08-24 09:55:00,
2013-08-24 03:00:00,45.7,37.5,29.79,SE,142,0.0,1.0,73,0.00,,,0.00,WeatherTracker,2013-08-24 10:00:00,
2013-08-24 03:05:00,45.5,37.7,29.79,SE,142,0.0,0.0,74,0.00,,,0.00,WeatherTracker,2013-08-24 10:05:00,
2013-08-24 03:10:00,45.4,37.6,29.79,SE,142,0.0,1.0,74,0.00,,,0.00,WeatherTracker,2013-08-24 10:10:00,
2013-08-24 03:15:00,45.2,37.4,29.79,SE,142,0.0,1.0,74,0.00,,,0.00,WeatherTracker,2013-08-24 10:15:00,
2013-08-24 03:20:00,44.9,37.5,29.79,SE,142,0.0,0.0,75,0.00,,,0.00,WeatherTracker,2013-08-24 10:20:00,
2013-08-24 03:25:00,44.2,36.4,29.79,ESE,123,1.0,6.0,74,0.00,,,0.00,WeatherTracker,2013-08-24 10:25:00,
2013-08-24 03:31:00,44.0,36.9,29.79,ESE,123,3.0,6.0,76,0.00,,,0.00,WeatherTracker,2013-08-24 10:31:00,
2013-08-24 03:36:00,43.8,36.7,29.79,ESE,111,0.0,4.0,76,0.00,,,0.00,WeatherTracker,2013-08-24 10:36:00,
2013-08-24 03:41:00,43.3,36.3,29.79,ESE,123,1.0,4.0,76,0.00,,,0.00,WeatherTracker,2013-08-24 10:41:00,
2013-08-24 03:46:00,43.6,36.5,29.80,SSE,165,5.0,5.0,76,0.00,,,0.00,WeatherTracker,2013-08-24 10:46:00,
2013-08-24 03:51:00,42.7,36.3,29.79,SSE,166,0.0,6.0,78,0.00,,,0.00,WeatherTracker,2013-08-24 10:51:00,
2013-08-24 03:56:00,43.3,36.9,29.79,SE,137,0.0,6.0,78,0.00,,,0.00,WeatherTracker,2013-08-24 10:56:00,
2013-08-24 04:01:00,43.8,36.7,29.79,SE,137,0.0,4.0,76,0.00,,,0.00,WeatherTracker,2013-08-24 11:01:00,
2013-08-24 04:06:00,43.4,36.3,29.79,SE,137,0.0,3.0,76,0.00,,,0.00,WeatherTracker,2013-08-24 11:06:00,
2013-08-24 04:11:00,42.9,35.9,29.79,SE,137,2.0,3.0,76,0.00,,,0.00,WeatherTracker,2013-08-24 11:11:00,
2013-08-24 04:16:00,42.3,35.6,29.79,SE,139,1.0,4.0,77,0.00,,,0.00,WeatherTracker,2013-08-24 11:16:00,
2013-08-24 04:21:00,41.8,35.8,29.79,SE,138,0.0,4.0,79,0.00,,,0.00,WeatherTracker,2013-08-24 11:21:00,
2013-08-24 04:26:00,41.8,35.5,29.79,ESE,102,1.0,7.0,78,0.00,,,0.00,WeatherTracker,2013-08-24 11:26:00,
2013-08-24 04:31:00,41.9,35.5,29.79,ESE,102,1.0,7.0,78,0.00,,,0.00,WeatherTracker,2013-08-24 11:31:00,
2013-08-24 04:36:00,42.0,36.0,29.79,SSE,149,2.0,5.0,79,0.00,,,0.00,WeatherTracker,2013-08-24 11:36:00,
2013-08-24 04:41:00,41.8,35.5,29.79,SSE,149,0.0,5.0,78,0.00,,,0.00,WeatherTracker,2013-08-24 11:41:00,
2013-08-24 04:46:00,42.0,35.6,29.79,SSE,150,0.0,5.0,78,0.00,,,0.00,WeatherTracker,2013-08-24 11:46:00,
2013-08-24 04:51:00,42.2,35.5,29.79,SSE,150,0.0,2.0,77,0.00,,,0.00,WeatherTracker,2013-08-24 11:51:00,
2013-08-24 04:56:00,42.0,35.0,29.79,SSE,150,1.0,3.0,76,0.00,,,0.00,WeatherTracker,2013-08-24 11:56:00,
2013-08-24 05:01:00,41.8,35.1,29.79,SSE,149,0.0,4.0,77,0.00,,,0.00,WeatherTracker,2013-08-24 12:01:00,
2013-08-24 05:07:00,41.6,34.9,29.79,SSE,149,4.0,4.0,77,0.00,,,0.00,WeatherTracker,2013-08-24 12:07:00,
2013-08-24 05:12:00,40.9,34.6,29.79,SSE,162,1.0,5.0,78,0.00,,,0.00,WeatherTracker,2013-08-24 12:12:00,
2013-08-24 05:17:00,40.5,34.5,29.79,SSE,162,0.0,6.0,79,0.00,,,0.00,WeatherTracker,2013-08-24 12:17:00,
2013-08-24 05:22:00,40.9,34.9,29.79,SSE,162,0.0,6.0,79,0.00,,,0.00,WeatherTracker,2013-08-24 12:22:00,
2013-08-24 05:27:00,41.1,35.1,29.79,ESE,103,3.0,3.0,79,0.00,,,0.00,WeatherTracker,2013-08-24 12:27:00,
2013-08-24 05:32:00,40.8,34.5,29.79,ESE,104,0.0,6.0,78,0.00,,,0.00,WeatherTracker,2013-08-24 12:32:00,
2013-08-24 05:37:00,40.9,34.6,29.79,ESE,104,1.0,6.0,78,0.00,,,0.00,WeatherTracker,2013-08-24 12:37:00,
2013-08-24 05:42:00,40.6,34.3,29.79,ESE,104,0.0,4.0,78,0.00,,,0.00,WeatherTracker,2013-08-24 12:42:00,
2013-08-24 05:47:00,40.2,33.9,29.80,SSE,149,5.0,5.0,78,0.00,,,0.00,WeatherTracker,2013-08-24 12:47:00,
2013-08-24 05:52:00,40.1,34.1,29.80,SSE,149,0.0,5.0,79,0.00,,,0.00,WeatherTracker,2013-08-24 12:52:00,
2013-08-24 05:57:00,40.5,34.5,29.80,SSE,149,0.0,5.0,79,0.00,,,0.00,WeatherTracker,2013-08-24 12:57:00,
2013-08-24 06:02:00,40.9,35.2,29.79,SSE,149,0.0,2.0,80,0.00,,,0.00,WeatherTracker,2013-08-24 13:02:00,
2013-08-24 06:07:00,41.1,35.1,29.79,SSE,149,0.0,3.0,79,0.00,,,0.00,WeatherTracker,2013-08-24 13:07:00,
2013-08-24 06:12:00,41.2,34.9,29.80,SSE,149,3.0,3.0,78,0.00,,,0.00,WeatherTracker,2013-08-24 13:12:00,
2013-08-24 06:17:00,40.5,34.2,29.80,SSE,149,0.0,4.0,78,0.00,,,0.00,WeatherTracker,2013-08-24 13:17:00,
2013-08-24 06:22:00,40.4,34.1,29.80,SSE,149,0.0,4.0,78,0.00,,,0.00,WeatherTracker,2013-08-24 13:22:00,
2013-08-24 06:27:00,39.9,33.6,29.80,ESE,108,2.0,2.0,78,0.00,,,0.00,WeatherTracker,2013-08-24 13:27:00,
2013-08-24 06:32:00,39.5,33.5,29.80,ESE,109,0.0,5.0,79,0.00,,,0.00,WeatherTracker,2013-08-24 13:32:00,
2013-08-24 06:37:00,39.4,34.1,29.81,SE,131,0.0,5.0,81,0.00,,,0.00,WeatherTracker,2013-08-24 13:37:00,
2013-08-24 06:42:00,39.4,34.1,29.81,SE,129,0.0,4.0,81,0.00,,,0.00,WeatherTracker,2013-08-24 13:42:00,
2013-08-24 06:47:00,39.6,34.3,29.81,SE,129,0.0,4.0,81,0.00,,,0.00,WeatherTracker,2013-08-24 13:47:00,
2013-08-24 06:52:00,39.4,34.1,29.81,SE,129,0.0,2.0,81,0.00,,,0.00,WeatherTracker,2013-08-24 13:52:00,
2013-08-24 06:57:00,39.7,34.4,29.81,SE,129,0.0,3.0,81,0.00,,,0.00,WeatherTracker,2013-08-24 13:57:00,
2013-08-24 07:02:00,39.8,34.1,29.81,SE,127,0.0,3.0,80,0.00,,,0.00,WeatherTracker,2013-08-24 14:02:00,
2013-08-24 07:07:00,39.8,34.8,29.81,South,185,0.0,4.0,82,0.00,,,0.00,WeatherTracker,2013-08-24 14:07:00,
2013-08-24 07:12:00,40.2,35.2,29.81,South,186,0.0,4.0,82,0.00,,,0.00,WeatherTracker,2013-08-24 14:12:00,
2013-08-24 07:17:00,40.6,35.2,29.82,South,185,0.0,3.0,81,0.00,,,0.00,WeatherTracker,2013-08-24 14:17:00,
2013-08-24 07:22:00,41.3,35.9,29.82,South,186,1.0,1.0,81,0.00,,,0.00,WeatherTracker,2013-08-24 14:22:00,
2013-08-24 07:28:00,41.8,36.4,29.82,South,186,0.0,2.0,81,0.00,,,0.00,WeatherTracker,2013-08-24 14:28:00,
2013-08-24 07:32:00,42.8,36.1,29.81,WNW,293,0.0,2.0,77,0.00,,,0.00,WeatherTracker,2013-08-24 14:32:00,
2013-08-24 07:38:00,44.2,37.1,29.81,WNW,293,0.0,4.0,76,0.00,,,0.00,WeatherTracker,2013-08-24 14:38:00,
2013-08-24 07:43:00,45.7,38.6,29.82,WNW,292,0.0,4.0,76,0.00,,,0.00,WeatherTracker,2013-08-24 14:43:00,
2013-08-24 07:48:00,46.7,39.2,29.81,WNW,293,0.0,2.0,75,0.00,,,0.00,WeatherTracker,2013-08-24 14:48:00,
2013-08-24 07:53:00,47.4,39.9,29.81,WNW,292,0.0,2.0,75,0.00,,,0.00,WeatherTracker,2013-08-24 14:53:00,
2013-08-24 07:58:00,47.8,40.6,29.81,West,278,0.0,3.0,76,0.00,,,0.00,WeatherTracker,2013-08-24 14:58:00,
2013-08-24 08:03:00,48.4,40.5,29.81,West,278,0.0,3.0,74,0.00,,,0.00,WeatherTracker,2013-08-24 15:03:00,
2013-08-24 08:08:00,49.0,41.1,29.81,West,278,0.0,2.0,74,0.00,,,0.00,WeatherTracker,2013-08-24 15:08:00,
2013-08-24 08:13:00,49.8,41.9,29.81,West,278,0.0,3.0,74,0.00,,,0.00,WeatherTracker,2013-08-24 15:13:00,
2013-08-24 08:18:00,50.5,42.2,29.81,WNW,282,0.0,3.0,73,0.00,,,0.00,WeatherTracker,2013-08-24 15:18:00,
2013-08-24 08:23:00,51.2,43.2,29.81,West,281,2.0,3.0,74,0.00,,,0.00,WeatherTracker,2013-08-24 15:23:00,
2013-08-24 08:28:00,51.8,43.8,29.81,WNW,282,0.0,4.0,74,0.00,,,0.00,WeatherTracker,2013-08-24 15:28:00,
2013-08-24 08:33:00,52.1,44.1,29.81,WNW,282,0.0,4.0,74,0.00,,,0.00,WeatherTracker,2013-08-24 15:33:00,
2013-08-24 08:38:00,52.4,43.6,29.81,WNW,282,0.0,4.0,72,0.00,,,0.00,WeatherTracker,2013-08-24 15:38:00,
2013-08-24 08:43:00,53.0,44.2,29.80,WNW,282,0.0,3.0,72,0.00,,,0.00,WeatherTracker,2013-08-24 15:43:00,
2013-08-24 08:48:00,53.7,43.8,29.80,West,281,1.0,2.0,69,0.00,,,0.00,WeatherTracker,2013-08-24 15:48:00,
2013-08-24 08:53:00,54.5,44.2,29.80,West,281,0.0,2.0,68,0.00,,,0.00,WeatherTracker,2013-08-24 15:53:00,
2013-08-24 08:58:00,55.1,44.3,29.80,West,281,3.0,3.0,67,0.00,,,0.00,WeatherTracker,2013-08-24 15:58:00,
2013-08-24 09:03:00,55.4,44.2,29.80,West,267,2.0,4.0,66,0.00,,,0.00,WeatherTracker,2013-08-24 16:03:00,
2013-08-24 09:08:00,55.8,43.8,29.80,West,267,0.0,4.0,64,0.00,,,0.00,WeatherTracker,2013-08-24 16:08:00,
2013-08-24 09:13:00,56.4,44.4,29.80,West,267,2.0,4.0,64,0.00,,,0.00,WeatherTracker,2013-08-24 16:13:00,
2013-08-24 09:18:00,57.1,44.2,29.80,West,266,2.0,3.0,62,0.00,,,0.00,WeatherTracker,2013-08-24 16:18:00,
2013-08-24 09:23:00,57.8,42.2,29.80,West,267,3.0,3.0,56,0.00,,,0.00,WeatherTracker,2013-08-24 16:23:00,
2013-08-24 09:28:00,58.6,41.5,29.80,WNW,291,2.0,4.0,53,0.00,,,0.00,WeatherTracker,2013-08-24 16:28:00,
2013-08-24 09:33:00,59.6,40.9,29.80,WNW,300,3.0,4.0,50,0.00,,,0.00,WeatherTracker,2013-08-24 16:33:00,
2013-08-24 09:39:00,60.5,41.2,29.80,NW,311,0.0,5.0,49,0.00,,,0.00,WeatherTracker,2013-08-24 16:39:00,
2013-08-24 09:44:00,61.3,41.4,29.80,NW,311,3.0,5.0,48,0.00,,,0.00,WeatherTracker,2013-08-24 16:44:00,
2013-08-24 09:49:00,62.3,40.7,29.80,NNW,341,5.0,6.0,45,0.00,,,0.00,WeatherTracker,2013-08-24 16:49:00,
2013-08-24 09:54:00,63.1,40.8,29.80,NNW,327,3.0,6.0,44,0.00,,,0.00,WeatherTracker,2013-08-24 16:54:00,
2013-08-24 09:59:00,63.7,43.1,29.80,NNW,332,4.0,6.0,47,0.00,,,0.00,WeatherTracker,2013-08-24 16:59:00,
2013-08-24 10:04:00,64.3,43.6,29.80,NW,326,0.0,6.0,47,0.00,,,0.00,WeatherTracker,2013-08-24 17:04:00,
2013-08-24 10:09:00,65.2,45.0,29.79,NNW,328,2.0,6.0,48,0.00,,,0.00,WeatherTracker,2013-08-24 17:09:00,
2013-08-24 10:14:00,66.0,45.2,29.79,NNW,338,2.0,5.0,47,0.00,,,0.00,WeatherTracker,2013-08-24 17:14:00,
2013-08-24 10:19:00,66.6,45.7,29.79,NNW,342,3.0,6.0,47,0.00,,,0.00,WeatherTracker,2013-08-24 17:19:00,
2013-08-24 10:24:00,67.0,45.5,29.79,WNW,300,3.0,6.0,46,0.00,,,0.00,WeatherTracker,2013-08-24 17:24:00,
2013-08-24 10:29:00,67.4,45.3,29.79,NW,319,4.0,6.0,45,0.00,,,0.00,WeatherTracker,2013-08-24 17:29:00,
2013-08-24 10:34:00,68.1,45.9,29.78,NW,321,5.0,5.0,45,0.00,,,0.00,WeatherTracker,2013-08-24 17:34:00,
2013-08-24 10:39:00,69.0,44.3,29.79,West,279,4.0,6.0,41,0.00,,,0.00,WeatherTracker,2013-08-24 17:39:00,
2013-08-24 10:44:00,69.4,43.4,29.79,West,281,0.0,6.0,39,0.00,,,0.00,WeatherTracker,2013-08-24 17:44:00,
2013-08-24 10:49:00,70.3,44.2,29.79,WNW,293,2.0,5.0,39,0.00,,,0.00,WeatherTracker,2013-08-24 17:49:00,
2013-08-24 10:54:00,71.0,44.8,29.79,WNW,291,0.0,5.0,39,0.00,,,0.00,WeatherTracker,2013-08-24 17:54:00,
2013-08-24 11:00:00,71.4,45.1,29.79,WNW,300,2.0,3.0,39,0.00,,,0.00,WeatherTracker,2013-08-24 18:00:00,
2013-08-24 11:05:00,72.9,47.1,29.78,NW,310,0.0,3.0,40,0.00,,,0.00,WeatherTracker,2013-08-24 18:05:00,
2013-08-24 11:10:00,74.4,44.9,29.78,NW,312,1.0,3.0,35,0.00,,,0.00,WeatherTracker,2013-08-24 18:10:00,
2013-08-24 11:15:00,75.1,43.2,29.78,NW,320,1.0,3.0,32,0.00,,,0.00,WeatherTracker,2013-08-24 18:15:00,
2013-08-24 11:20:00,76.0,41.4,29.77,NE,48,0.0,4.0,29,0.00,,,0.00,WeatherTracker,2013-08-24 18:20:00,
2013-08-24 11:25:00,76.6,40.1,29.78,NE,52,2.0,5.0,27,0.00,,,0.00,WeatherTracker,2013-08-24 18:25:00,
2013-08-24 11:30:00,77.1,41.5,29.77,NNE,22,3.0,5.0,28,0.00,,,0.00,WeatherTracker,2013-08-24 18:30:00,
2013-08-24 11:35:00,77.8,40.1,29.77,NNE,23,0.0,5.0,26,0.00,,,0.00,WeatherTracker,2013-08-24 18:35:00,
2013-08-24 11:40:00,78.1,37.3,29.77,NNW,347,4.0,6.0,23,0.00,,,0.00,WeatherTracker,2013-08-24 18:40:00,
2013-08-24 11:45:00,78.2,38.4,29.77,NW,321,4.0,6.0,24,0.00,,,0.00,WeatherTracker,2013-08-24 18:45:00,
2013-08-24 11:50:00,78.0,37.2,29.77,NNW,335,2.0,6.0,23,0.00,,,0.00,WeatherTracker,2013-08-24 18:50:00,
2013-08-24 11:55:00,78.1,39.4,29.76,North,8,0.0,6.0,25,0.00,,,0.00,WeatherTracker,2013-08-24 18:55:00,
2013-08-24 12:00:00,79.1,40.2,29.77,East,80,4.0,6.0,25,0.00,,,0.00,WeatherTracker,2013-08-24 19:00:00,
2013-08-24 12:05:00,80.0,38.9,29.76,East,85,6.0,6.0,23,0.00,,,0.00,WeatherTracker,2013-08-24 19:05:00,
2013-08-24 12:10:00,80.0,39.9,29.76,ESE,119,5.0,9.0,24,0.00,,,0.00,WeatherTracker,2013-08-24 19:10:00,
2013-08-24 12:15:00,78.7,36.6,29.76,South,189,4.0,15.0,22,0.00,,,0.00,WeatherTracker,2013-08-24 19:15:00,
2013-08-24 12:20:00,77.8,35.9,29.76,SW,227,2.0,15.0,22,0.00,,,0.00,WeatherTracker,2013-08-24 19:20:00,
2013-08-24 12:26:00,77.7,35.8,29.76,South,176,3.0,10.0,22,0.00,,,0.00,WeatherTracker,2013-08-24 19:26:00,
2013-08-24 12:31:00,78.0,34.9,29.76,SE,146,0.0,14.0,21,0.00,,,0.00,WeatherTracker,2013-08-24 19:31:00,
2013-08-24 12:36:00,78.7,34.2,29.75,South,185,7.0,15.0,20,0.00,,,0.00,WeatherTracker,2013-08-24 19:36:00,
2013-08-24 12:41:00,78.8,40.0,29.75,South,184,11.0,22.0,25,0.00,,,0.00,WeatherTracker,2013-08-24 19:41:00,
2013-08-24 12:46:00,78.2,37.4,29.75,WSW,250,3.0,31.0,23,0.00,,,0.00,WeatherTracker,2013-08-24 19:46:00,
2013-08-24 12:51:00,78.4,36.4,29.75,South,181,14.0,31.0,22,0.00,,,0.00,WeatherTracker,2013-08-24 19:51:00,
2013-08-24 12:56:00,78.4,36.4,29.75,South,176,17.0,20.0,22,0.00,,,0.00,WeatherTracker,2013-08-24 19:56:00,
2013-08-24 13:01:00,78.4,37.5,29.75,South,176,14.0,20.0,23,0.00,,,0.00,WeatherTracker,2013-08-24 20:01:00,
2013-08-24 13:06:00,78.4,36.4,29.74,South,180,12.0,20.0,22,0.00,,,0.00,WeatherTracker,2013-08-24 20:06:00,
2013-08-24 13:11:00,78.4,38.6,29.74,SSW,203,16.0,25.0,24,0.00,,,0.00,WeatherTracker,2013-08-24 20:11:00,
2013-08-24 13:16:00,78.5,37.6,29.75,WSW,237,6.0,25.0,23,0.00,,,0.00,WeatherTracker,2013-08-24 20:16:00,
2013-08-24 13:21:00,78.7,37.8,29.74,South,176,13.0,21.0,23,0.00,,,0.00,WeatherTracker,2013-08-24 20:21:00,
2013-08-24 13:26:00,78.7,36.6,29.74,SSW,194,8.0,19.0,22,0.00,,,0.00,WeatherTracker,2013-08-24 20:26:00,
2013-08-24 13:31:00,78.7,34.2,29.74,South,176,10.0,20.0,20,0.00,,,0.00,WeatherTracker,2013-08-24 20:31:00,
2013-08-24 13:36:00,78.9,35.6,29.74,South,183,14.0,24.0,21,0.00,,,0.00,WeatherTracker,2013-08-24 20:36:00,
2013-08-24 13:41:00,79.2,35.9,29.74,South,187,14.0,24.0,21,0.00,,,0.00,WeatherTracker,2013-08-24 20:41:00,
2013-08-24 13:46:00,79.1,35.8,29.74,South,178,16.0,20.0,21,0.00,,,0.00,WeatherTracker,2013-08-24 20:46:00,
2013-08-24 13:51:00,79.1,37.0,29.74,South,175,11.0,22.0,22,0.00,,,0.00,WeatherTracker,2013-08-24 20:51:00,
2013-08-24 13:56:00,79.3,37.1,29.73,South,183,12.0,24.0,22,0.00,,,0.00,WeatherTracker,2013-08-24 20:56:00,
2013-08-24 14:01:00,79.3,39.4,29.73,SSE,161,17.0,24.0,24,0.00,,,0.00,WeatherTracker,2013-08-24 21:01:00,
2013-08-24 14:06:00,79.8,39.8,29.73,South,177,13.0,23.0,24,0.00,,,0.00,WeatherTracker,2013-08-24 21:06:00,
2013-08-24 14:11:00,79.6,37.4,29.73,South,188,13.0,23.0,22,0.00,,,0.00,WeatherTracker,2013-08-24 21:11:00,
2013-08-24 14:16:00,79.4,37.2,29.74,South,177,14.0,25.0,22,0.00,,,0.00,WeatherTracker,2013-08-24 21:16:00,
2013-08-24 14:21:00,79.8,39.8,29.73,South,169,19.0,25.0,24,0.00,,,0.00,WeatherTracker,2013-08-24 21:21:00,
2013-08-24 14:26:00,79.6,36.2,29.73,South,181,18.0,29.0,21,0.00,,,0.00,WeatherTracker,2013-08-24 21:26:00,
2013-08-24 14:32:00,79.9,40.9,29.73,South,174,19.0,29.0,25,0.00,,,0.00,WeatherTracker,2013-08-24 21:32:00,
2013-08-24 14:37:00,79.7,39.7,29.73,South,176,16.0,27.0,24,0.00,,,0.00,WeatherTracker,2013-08-24 21:37:00,
2013-08-24 14:42:00,79.3,37.1,29.73,South,176,27.0,27.0,22,0.00,,,0.00,WeatherTracker,2013-08-24 21:42:00,
2013-08-24 14:47:00,79.1,37.0,29.73,SSE,168,21.0,27.0,22,0.00,,,0.00,WeatherTracker,2013-08-24 21:47:00,
2013-08-24 14:52:00,79.2,39.3,29.72,South,181,14.0,27.0,24,0.00,,,0.00,WeatherTracker,2013-08-24 21:52:00,
2013-08-24 14:57:00,78.8,38.9,29.73,South,171,17.0,25.0,24,0.00,,,0.00,WeatherTracker,2013-08-24 21:57:00,
2013-08-24 15:02:00,78.7,38.9,29.72,South,171,11.0,25.0,24,0.00,,,0.00,WeatherTracker,2013-08-24 22:02:00,
2013-08-24 15:07:00,78.7,38.9,29.72,South,170,24.0,24.0,24,0.00,,,0.00,WeatherTracker,2013-08-24 22:07:00,
2013-08-24 15:12:00,78.5,38.7,29.72,South,176,16.0,25.0,24,0.00,,,0.00,WeatherTracker,2013-08-24 22:12:00,
2013-08-24 15:17:00,78.1,39.4,29.72,SSE,167,19.0,25.0,25,0.00,,,0.00,WeatherTracker,2013-08-24 22:17:00,
2013-08-24 15:22:00,77.9,40.2,29.72,South,185,19.0,24.0,26,0.00,,,0.00,WeatherTracker,2013-08-24 22:22:00,
2013-08-24 15:27:00,78.0,36.1,29.72,South,173,17.0,23.0,22,0.00,,,0.00,WeatherTracker,2013-08-24 22:27:00,
2013-08-24 15:32:00,77.7,38.0,29.72,South,174,16.0,28.0,24,0.00,,,0.00,WeatherTracker,2013-08-24 22:32:00,
2013-08-24 15:37:00,77.8,37.0,29.72,SSE,159,14.0,28.0,23,0.00,,,0.00,WeatherTracker,2013-08-24 22:37:00,
2013-08-24 15:42:00,77.8,37.0,29.72,South,172,11.0,26.0,23,0.00,,,0.00,WeatherTracker,2013-08-24 22:42:00,
2013-08-24 15:47:00,77.9,37.1,29.72,South,174,13.0,25.0,23,0.00,,,0.00,WeatherTracker,2013-08-24 22:47:00,
2013-08-24 15:52:00,78.0,37.2,29.72,South,171,11.0,25.0,23,0.00,,,0.00,WeatherTracker,2013-08-24 22:52:00,
2013-08-24 15:57:00,77.9,37.1,29.72,South,173,13.0,23.0,23,0.00,,,0.00,WeatherTracker,2013-08-24 22:57:00,
2013-08-24 16:02:00,78.2,36.2,29.72,South,179,9.0,18.0,22,0.00,,,0.00,WeatherTracker,2013-08-24 23:02:00,
2013-08-24 16:07:00,78.3,37.4,29.71,SSW,196,9.0,23.0,23,0.00,,,0.00,WeatherTracker,2013-08-24 23:07:00,
2013-08-24 16:12:00,78.4,39.6,29.71,South,173,6.0,23.0,25,0.00,,,0.00,WeatherTracker,2013-08-24 23:12:00,
2013-08-24 16:18:00,78.2,38.4,29.71,South,191,6.0,16.0,24,0.00,,,0.00,WeatherTracker,2013-08-24 23:18:00,
2013-08-24 16:23:00,78.3,38.5,29.71,South,169,13.0,15.0,24,0.00,,,0.00,WeatherTracker,2013-08-24 23:23:00,
2013-08-24 16:28:00,78.2,38.4,29.71,South,177,11.0,20.0,24,0.00,,,0.00,WeatherTracker,2013-08-24 23:28:00,
2013-08-24 16:33:00,78.0,39.3,29.71,SSE,164,6.0,20.0,25,0.00,,,0.00,WeatherTracker,2013-08-24 23:33:00,
2013-08-24 16:38:00,77.7,39.1,29.71,SSW,205,5.0,19.0,25,0.00,,,0.00,WeatherTracker,2013-08-24 23:38:00,
2013-08-24 16:43:00,77.7,39.1,29.71,South,179,3.0,17.0,25,0.00,,,0.00,WeatherTracker,2013-08-24 23:43:00,
2013-08-24 16:48:00,77.5,38.9,29.71,South,184,6.0,11.0,25,0.00,,,0.00,WeatherTracker,2013-08-24 23:48:00,
2013-08-24 16:53:00,77.6,40.0,29.71,WSW,237,5.0,17.0,26,0.00,,,0.00,WeatherTracker,2013-08-24 23:53:00,
2013-08-24 16:58:00,77.8,39.1,29.71,South,177,9.0,17.0,25,0.00,,,0.00,WeatherTracker,2013-08-24 23:58:00,
2013-08-24 17:03:00,77.6,39.0,29.71,SSE,168,5.0,11.0,25,0.00,,,0.00,WeatherTracker,2013-08-25 00:03:00,
2013-08-24 17:08:00,77.6,41.0,29.71,South,184,4.0,18.0,27,0.00,,,0.00,WeatherTracker,2013-08-25 00:08:00,
2013-08-24 17:13:00,78.1,40.4,29.70,SW,214,0.0,18.0,26,0.00,,,0.00,WeatherTracker,2013-08-25 00:13:00,
2013-08-24 17:18:00,78.3,41.5,29.71,WSW,258,0.0,10.0,27,0.00,,,0.00,WeatherTracker,2013-08-25 00:18:00,
2013-08-24 17:23:00,77.6,40.0,29.71,South,176,9.0,13.0,26,0.00,,,0.00,WeatherTracker,2013-08-25 00:23:00,
2013-08-24 17:28:00,77.2,38.6,29.71,South,171,4.0,18.0,25,0.00,,,0.00,WeatherTracker,2013-08-25 00:28:00,
2013-08-24 17:33:00,77.4,39.8,29.71,NW,312,3.0,18.0,26,0.00,,,0.00,WeatherTracker,2013-08-25 00:33:00,
2013-08-24 17:38:00,77.5,38.9,29.71,SW,227,6.0,12.0,25,0.00,,,0.00,WeatherTracker,2013-08-25 00:38:00,
2013-08-24 17:43:00,77.2,38.6,29.71,SW,230,3.0,13.0,25,0.00,,,0.00,WeatherTracker,2013-08-25 00:43:00,
2013-08-24 17:48:00,77.5,39.9,29.71,SSW,196,6.0,13.0,26,0.00,,,0.00,WeatherTracker,2013-08-25 00:48:00,
2013-08-24 17:53:00,77.0,39.5,29.71,SSW,198,3.0,16.0,26,0.00,,,0.00,WeatherTracker,2013-08-25 00:53:00,
2013-08-24 17:58:00,77.1,37.5,29.71,WSW,257,0.0,16.0,24,0.00,,,0.00,WeatherTracker,2013-08-25 00:58:00,
2013-08-24 18:03:00,77.3,40.7,29.71,NW,306,4.0,15.0,27,0.00,,,0.00,WeatherTracker,2013-08-25 01:03:00,
2013-08-24 18:09:00,76.6,39.1,29.71,SSW,213,2.0,12.0,26,0.00,,,0.00,WeatherTracker,2013-08-25 01:09:00,
2013-08-24 18:14:00,76.1,39.7,29.71,SSW,210,2.0,14.0,27,0.00,,,0.00,WeatherTracker,2013-08-25 01:14:00,
2013-08-24 18:19:00,75.5,38.2,29.71,SSW,196,6.0,14.0,26,0.00,,,0.00,WeatherTracker,2013-08-25 01:19:00,
2013-08-24 18:24:00,75.4,40.0,29.72,SSW,208,0.0,20.0,28,0.00,,,0.00,WeatherTracker,2013-08-25 01:24:00,
2013-08-24 18:29:00,75.4,40.9,29.72,WSW,237,6.0,20.0,29,0.00,,,0.00,WeatherTracker,2013-08-25 01:29:00,
2013-08-24 18:34:00,74.9,40.5,29.72,West,278,4.0,13.0,29,0.00,,,0.00,WeatherTracker,2013-08-25 01:34:00,
2013-08-24 18:39:00,74.7,41.2,29.72,WNW,285,1.0,13.0,30,0.00,,,0.00,WeatherTracker,2013-08-25 01:39:00,
2013-08-24 18:44:00,74.2,39.0,29.73,West,275,7.0,11.0,28,0.00,,,0.00,WeatherTracker,2013-08-25 01:44:00,
2013-08-24 18:49:00,73.6,41.1,29.73,ESE,119,0.0,10.0,31,0.00,,,0.00,WeatherTracker,2013-08-25 01:49:00,
2013-08-24 18:54:00,73.3,40.8,29.73,East,83,1.0,10.0,31,0.00,,,0.00,WeatherTracker,2013-08-25 01:54:00,
2013-08-24 18:59:00,72.7,40.3,29.73,East,81,0.0,8.0,31,0.00,,,0.00,WeatherTracker,2013-08-25 01:59:00,
2013-08-24 19:04:00,72.8,40.4,29.73,NE,41,0.0,7.0,31,0.00,,,0.00,WeatherTracker,2013-08-25 02:04:00,
2013-08-24 19:09:00,72.7,41.9,29.74,North,6,2.0,9.0,33,0.00,,,0.00,WeatherTracker,2013-08-25 02:09:00,
2013-08-24 19:14:00,72.0,42.1,29.74,NNE,16,0.0,9.0,34,0.00,,,0.00,WeatherTracker,2013-08-25 02:14:00,
2013-08-24 19:19:00,71.3,43.0,29.74,NNE,17,0.0,4.0,36,0.00,,,0.00,WeatherTracker,2013-08-25 02:19:00,
2013-08-24 19:24:00,70.3,42.8,29.74,NNE,17,3.0,3.0,37,0.00,,,0.00,WeatherTracker,2013-08-25 02:24:00,
2013-08-24 19:29:00,68.9,42.2,29.75,NNE,16,3.0,3.0,38,0.00,,,0.00,WeatherTracker,2013-08-25 02:29:00,
2013-08-24 19:34:00,68.2,41.6,29.75,NNE,15,0.0,4.0,38,0.00,,,0.00,WeatherTracker,2013-08-25 02:34:00,
2013-08-24 19:39:00,68.0,41.4,29.75,North,10,2.0,4.0,38,0.00,,,0.00,WeatherTracker,2013-08-25 02:39:00,
2013-08-24 19:44:00,67.4,42.2,29.75,North,10,2.0,4.0,40,0.00,,,0.00,WeatherTracker,2013-08-25 02:44:00,
2013-08-24 19:49:00,66.7,41.6,29.75,NNE,13,2.0,4.0,40,0.00,,,0.00,WeatherTracker,2013-08-25 02:49:00,
2013-08-24 19:54:00,66.3,41.9,29.76,NNE,15,0.0,4.0,41,0.00,,,0.00,WeatherTracker,2013-08-25 02:54:00,
2013-08-24 19:59:00,65.9,41.5,29.76,NNE,19,0.0,4.0,41,0.00,,,0.00,WeatherTracker,2013-08-25 02:59:00,
2013-08-24 20:04:00,65.8,41.4,29.76,NNE,19,0.0,4.0,41,0.00,,,0.00,WeatherTracker,2013-08-25 03:04:00,
2013-08-24 20:09:00,66.8,40.4,29.77,East,80,4.0,4.0,38,0.00,,,0.00,WeatherTracker,2013-08-25 03:09:00,
2013-08-24 20:14:00,68.4,41.1,29.77,ESE,115,3.0,11.0,37,0.00,,,0.00,WeatherTracker,2013-08-25 03:14:00,
2013-08-24 20:19:00,68.3,41.0,29.76,ESE,110,1.0,11.0,37,0.00,,,0.00,WeatherTracker,2013-08-25 03:19:00,
2013-08-24 20:24:00,67.9,42.0,29.76,ESE,106,0.0,9.0,39,0.00,,,0.00,WeatherTracker,2013-08-25 03:24:00,
2013-08-24 20:29:00,67.0,42.5,29.77,SE,139,3.0,6.0,41,0.00,,,0.00,WeatherTracker,2013-08-25 03:29:00,
2013-08-24 20:34:00,65.9,41.5,29.77,West,269,1.0,4.0,41,0.00,,,0.00,WeatherTracker,2013-08-25 03:34:00,
2013-08-24 20:39:00,65.1,40.2,29.77,North,354,3.0,4.0,40,0.00,,,0.00,WeatherTracker,2013-08-25 03:39:00,
2013-08-24 20:44:00,65.8,41.4,29.77,West,259,3.0,9.0,41,0.00,,,0.00,WeatherTracker,2013-08-25 03:44:00,
2013-08-24 20:49:00,65.8,41.4,29.78,WSW,256,0.0,9.0,41,0.00,,,0.00,WeatherTracker,2013-08-25 03:49:00,
2013-08-24 20:54:00,65.4,41.7,29.78,WSW,256,0.0,6.0,42,0.00,,,0.00,WeatherTracker,2013-08-25 03:54:00,
2013-08-24 21:00:00,64.6,42.2,29.78,North,8,3.0,4.0,44,0.00,,,0.00,WeatherTracker,2013-08-25 04:00:00,
2013-08-24 21:01:00,64.3,41.9,29.78,NNE,20,2.0,4.0,44,0.00,,,0.00,WeatherTracker,2013-08-25 04:01:00,
2013-08-24 21:02:00,64.0,41.6,29.78,NNE,17,2.0,4.0,44,0.00,,,0.00,WeatherTracker,2013-08-25 04:02:00,
2013-08-24 21:07:00,63.4,41.1,29.78,NNE,17,0.0,4.0,44,0.00,,,0.00,WeatherTracker,2013-08-25 04:07:00,
2013-08-24 21:12:00,63.0,41.3,29.78,NNE,17,0.0,4.0,45,0.00,,,0.00,WeatherTracker,2013-08-25 04:12:00,
2013-08-24 21:17:00,62.9,41.2,29.78,NE,38,0.0,3.0,45,0.00,,,0.00,WeatherTracker,2013-08-25 04:17:00,
2013-08-24 21:22:00,63.0,41.3,29.78,NE,37,3.0,4.0,45,0.00,,,0.00,WeatherTracker,2013-08-25 04:22:00,
2013-08-24 21:27:00,62.9,40.6,29.78,North,10,3.0,6.0,44,0.00,,,0.00,WeatherTracker,2013-08-25 04:27:00,
2013-08-24 21:32:00,63.3,41.0,29.78,NNE,30,3.0,6.0,44,0.00,,,0.00,WeatherTracker,2013-08-25 04:32:00,
2013-08-24 21:37:00,63.5,41.2,29.78,NNE,28,2.0,6.0,44,0.00,,,0.00,WeatherTracker,2013-08-25 04:37:00,
2013-08-24 21:42:00,63.3,41.0,29.78,NNE,22,2.0,3.0,44,0.00,,,0.00,WeatherTracker,2013-08-25 04:42:00,
2013-08-24 21:47:00,62.8,41.1,29.78,NW,308,1.0,3.0,45,0.00,,,0.00,WeatherTracker,2013-08-25 04:47:00,
2013-08-24 21:52:00,61.8,40.8,29.79,NW,304,5.0,6.0,46,0.00,,,0.00,WeatherTracker,2013-08-25 04:52:00,
2013-08-24 21:57:00,61.6,40.6,29.79,NW,311,4.0,8.0,46,0.00,,,0.00,WeatherTracker,2013-08-25 04:57:00,
2013-08-24 22:03:00,62.1,41.1,29.79,WNW,289,6.0,12.0,46,0.00,,,0.00,WeatherTracker,2013-08-25 05:03:00,
2013-08-24 22:08:00,61.5,40.5,29.79,WNW,299,6.0,12.0,46,0.00,,,0.00,WeatherTracker,2013-08-25 05:08:00,
2013-08-24 22:13:00,60.6,40.3,29.79,NW,325,4.0,9.0,47,0.00,,,0.00,WeatherTracker,2013-08-25 05:13:00,
2013-08-24 22:18:00,60.4,40.6,29.79,NW,309,2.0,9.0,48,0.00,,,0.00,WeatherTracker,2013-08-25 05:18:00,
2013-08-24 22:23:00,60.4,40.6,29.79,WNW,299,4.0,7.0,48,0.00,,,0.00,WeatherTracker,2013-08-25 05:23:00,
2013-08-24 22:28:00,59.7,40.5,29.79,WNW,295,3.0,6.0,49,0.00,,,0.00,WeatherTracker,2013-08-25 05:28:00,
2013-08-24 22:33:00,59.2,40.0,29.79,WNW,302,1.0,5.0,49,0.00,,,0.00,WeatherTracker,2013-08-25 05:33:00,
2013-08-24 22:38:00,59.0,39.9,29.80,WNW,302,1.0,5.0,49,0.00,,,0.00,WeatherTracker,2013-08-25 05:38:00,
2013-08-24 22:43:00,58.6,40.0,29.80,WNW,303,3.0,4.0,50,0.00,,,0.00,WeatherTracker,2013-08-25 05:43:00,
2013-08-24 22:48:00,59.0,39.9,29.80,NW,311,3.0,3.0,49,0.00,,,0.00,WeatherTracker,2013-08-25 05:48:00,
2013-08-24 22:53:00,59.0,40.4,29.80,NW,316,0.0,4.0,50,0.00,,,0.00,WeatherTracker,2013-08-25 05:53:00,
2013-08-24 22:58:00,58.7,40.6,29.80,NW,311,2.0,4.0,51,0.00,,,0.00,WeatherTracker,2013-08-25 05:58:00,
2013-08-24 23:03:00,58.5,39.9,29.80,NNW,329,2.0,4.0,50,0.00,,,0.00,WeatherTracker,2013-08-25 06:03:00,
2013-08-24 23:08:00,58.6,40.5,29.80,East,96,3.0,7.0,51,0.00,,,0.00,WeatherTracker,2013-08-25 06:08:00,
2013-08-24 23:13:00,57.8,39.8,29.80,East,97,0.0,7.0,51,0.00,,,0.00,WeatherTracker,2013-08-25 06:13:00,
2013-08-24 23:18:00,57.2,40.2,29.81,East,96,3.0,5.0,53,0.00,,,0.00,WeatherTracker,2013-08-25 06:18:00,
2013-08-24 23:23:00,56.7,40.2,29.81,ESE,118,5.0,5.0,54,0.00,,,0.00,WeatherTracker,2013-08-25 06:23:00,
2013-08-24 23:28:00,56.1,40.2,29.81,ESE,108,0.0,6.0,55,0.00,,,0.00,WeatherTracker,2013-08-25 06:28:00,
2013-08-24 23:33:00,55.7,40.2,29.81,ESE,117,4.0,6.0,56,0.00,,,0.00,WeatherTracker,2013-08-25 06:33:00,
2013-08-24 23:38:00,54.8,39.9,29.81,SE,144,0.0,5.0,57,0.00,,,0.00,WeatherTracker,2013-08-25 06:38:00,
2013-08-24 23:43:00,54.7,40.2,29.82,SE,144,1.0,5.0,58,0.00,,,0.00,WeatherTracker,2013-08-25 06:43:00,
2013-08-24 23:48:00,54.8,39.4,29.82,SE,144,0.0,5.0,56,0.00,,,0.00,WeatherTracker,2013-08-25 06:48:00,
2013-08-24 23:54:00,55.0,39.6,29.82,SE,144,0.0,3.0,56,0.00,,,0.00,WeatherTracker,2013-08-25 06:54:00,
2013-08-24 23:59:00,54.6,40.1,29.82,SE,144,0.0,1.0,58,0.00,,,0.00,WeatherTracker,2013-08-25 06:59:00,